Date,TemperatureHighF,TemperatureAvgF,TemperatureLowF,DewpointHighF,DewpointAvgF,DewpointLowF,HumidityHigh,HumidityAvg,HumidityLow,PressureMaxIn,PressureMinIn,WindSpeedMaxMPH,WindSpeedAvgMPH,GustSpeedMaxMPH,PrecipitationSumIn
2013-3-1,42,36,31,-100,-100,-100,0,0,100,0.00,40.00,0,-999,0,0.01
2013-3-2,45,36,29,-100,-100,-100,0,0,100,0.00,40.00,0,-999,0,0.01
2013-3-3,38,33,25,-100,-100,-100,0,0,100,0.00,40.00,0,-999,0,0.02
2013-3-4,37,24,17,-100,-100,-100,0,0,100,0.00,40.00,0,-999,0,0.00
2013-3-5,43,33,19,-100,-100,-100,0,0,100,0.00,40.00,0,-999,0,0.00
2013-3-6,51,39,34,-100,-100,-100,0,0,100,0.00,40.00,0,-999,0,0.01
2013-3-7,44,36,33,-100,-100,-100,0,0,100,0.00,40.00,0,-999,0,0.01
2013-3-8,48,32,20,-100,-100,-100,0,0,100,0.00,40.00,0,-999,0,0.00
2013-3-9,43,35,23,-100,-100,-100,0,0,100,0.00,40.00,0,-999,0,0.00
2013-3-10,48,40,26,-100,-100,-100,0,0,100,0.00,40.00,0,-999,0,0.00
2013-3-11,46,37,30,-100,-100,-100,0,0,100,0.00,40.00,0,-999,0,0.01
2013-3-12,45,37,30,-100,-100,-100,0,0,100,0.00,40.00,0,-999,0,0.00
2013-3-13,49,38,34,-100,-100,-100,0,0,100,0.00,40.00,0,-999,0,0.00
2013-3-14,50,37,32,-100,-100,-100,0,0,100,0.00,40.00,0,-999,0,0.00
2013-3-15,52,40,33,-100,-100,-100,0,0,100,0.00,40.00,0,-999,0,0.00
2013-3-16,46,38,32,-100,-100,-100,0,0,100,0.00,40.00,0,-999,0,0.00
2013-3-17,37,33,31,-100,-100,-100,0,0,100,0.00,40.00,0,-999,0,0.02
2013-3-18,38,34,31,-100,-100,-100,0,0,100,0.00,40.00,0,-999,0,0.01
2013-3-19,45,31,20,-100,-100,-100,0,0,100,0.00,40.00,0,-999,0,0.01
2013-3-20,53,38,33,-100,-100,-100,0,0,100,0.00,40.00,0,-999,0,0.03
2013-3-21,35,32,29,-100,-100,-100,0,0,100,0.00,40.00,0,-999,0,0.01
2013-3-22,35,31,29,-100,-100,-100,0,0,100,0.00,40.00,0,-999,0,0.01
2013-3-23,35,30,23,-100,-100,-100,0,0,100,0.00,40.00,0,-999,0,0.01
2013-3-24,37,22,13,-100,-100,-100,0,0,100,0.00,40.00,0,-999,0,0.00
2013-3-25,49,31,17,-100,-100,-100,0,0,100,0.00,40.00,0,-999,0,0.00
2013-3-26,52,37,26,-100,-100,-100,0,0,100,0.00,40.00,0,-999,0,0.01
2013-3-27,57,40,31,-100,-100,-100,0,0,100,0.00,40.00,0,-999,0,0.00
2013-3-28,53,39,30,-100,-100,-100,0,0,100,0.00,40.00,0,-999,0,0.00
2013-3-29,51,40,36,-100,-100,-100,0,0,100,0.00,40.00,0,-999,0,0.00
2013-3-30,59,39,30,-100,-100,-100,0,0,100,0.00,40.00,0,-999,0,0.00
2013-3-31,64,38,27,-100,-100,-100,0,0,100,0.00,40.00,0,-999,0,0.00